Nepal

Resources for Nepal vACC

Active Sector File
Click here to access latest available sector file for Nepal

VATSIM Metar for Nepal
VNKT 130820Z VRB02KT 8000 FEW015 SCT030 BKN100 27/20 Q1007 NOSIG